createdAt,value
2023-08-17T00:00:41.795Z,100730.88
2023-08-17T00:02:05.077Z,100729.53
2023-08-17T00:03:27.117Z,100733.13
2023-08-17T00:04:50.438Z,100722.63
2023-08-17T00:06:12.464Z,100729.44
2023-08-17T00:07:35.614Z,100720.91
2023-08-17T00:08:57.603Z,100720.09
2023-08-17T00:10:20.926Z,100717.50
2023-08-17T00:11:42.892Z,100718.06
2023-08-17T00:13:06.074Z,100710.16
2023-08-17T00:14:29.666Z,100708.22
2023-08-17T00:15:52.944Z,100705.03
2023-08-17T00:17:15.059Z,100703.63
2023-08-17T00:18:38.087Z,100702.56
2023-08-17T00:20:00.063Z,100702.00
2023-08-17T00:21:23.302Z,100703.06
2023-08-17T00:22:45.504Z,100702.50
2023-08-17T00:24:09.002Z,100694.34
2023-08-17T00:25:31.919Z,100691.47
2023-08-17T00:26:53.927Z,100686.09
2023-08-17T00:28:16.948Z,100680.16
2023-08-17T00:29:40.630Z,100673.72
2023-08-17T00:31:04.129Z,100680.00
2023-08-17T00:32:26.187Z,100680.34
2023-08-17T00:33:49.109Z,100681.78
2023-08-17T00:35:11.132Z,100671.19
2023-08-17T00:36:34.198Z,100673.53
2023-08-17T00:37:56.544Z,100673.56
2023-08-17T00:39:20.958Z,100676.44
2023-08-17T00:40:43.297Z,100676.44
2023-08-17T00:42:09.009Z,100671.94
2023-08-17T00:43:31.130Z,100673.34
2023-08-17T00:44:55.611Z,100671.75
2023-08-17T00:46:18.471Z,100671.19
2023-08-17T00:47:42.136Z,100674.09
2023-08-17T00:49:04.959Z,100671.41
2023-08-17T00:50:30.008Z,100670.56
2023-08-17T00:51:52.792Z,100676.72
2023-08-17T00:53:17.623Z,100681.03
2023-08-17T00:54:40.119Z,100683.16
2023-08-17T00:56:03.572Z,100684.84
2023-08-17T00:57:25.800Z,100689.88
2023-08-17T00:58:49.147Z,100687.97
2023-08-17T01:00:17.146Z,100699.03
2023-08-17T01:01:42.073Z,100703.13
2023-08-17T01:03:05.664Z,100711.75
2023-08-17T01:04:28.582Z,100722.25
2023-08-17T01:05:50.511Z,100735.97
2023-08-17T01:07:13.584Z,100727.91
2023-08-17T01:08:36.379Z,100769.81
2023-08-17T01:09:59.738Z,100773.75
2023-08-17T01:11:29.012Z,100775.97
2023-08-17T01:13:02.928Z,100780.22
2023-08-17T01:14:32.099Z,100781.03
2023-08-17T01:16:00.589Z,100772.59
2023-08-17T01:17:28.031Z,100772.66
2023-08-17T01:18:53.178Z,100752.06
2023-08-17T01:20:18.153Z,100772.28
2023-08-17T01:21:45.247Z,100774.56
2023-08-17T01:23:08.855Z,100776.91
2023-08-17T01:24:31.905Z,100771.59
2023-08-17T01:25:54.871Z,100788.22
2023-08-17T01:27:18.507Z,100802.06
2023-08-17T01:28:40.521Z,100800.44
2023-08-17T01:30:03.632Z,100789.34
2023-08-17T01:31:32.928Z,100801.13
2023-08-17T01:33:00.639Z,100804.94
2023-08-17T01:34:26.546Z,100804.09
2023-08-17T01:35:57.284Z,100800.59
2023-08-17T01:37:23.145Z,100802.31
2023-08-17T01:38:48.397Z,100806.41
2023-08-17T01:40:14.444Z,100821.41
2023-08-17T01:41:38.835Z,100821.97
2023-08-17T01:43:01.431Z,100813.44
2023-08-17T01:44:26.347Z,100821.38
2023-08-17T01:45:48.944Z,100813.06
2023-08-17T01:47:12.851Z,100808.56
2023-08-17T01:48:34.839Z,100808.63
2023-08-17T01:50:00.930Z,100807.44
2023-08-17T01:51:22.866Z,100815.97
2023-08-17T01:52:45.807Z,100809.28
2023-08-17T01:54:09.753Z,100811.38
2023-08-17T01:55:32.653Z,100817.25
2023-08-17T01:56:54.841Z,100831.09
2023-08-17T01:58:17.817Z,100830.50
2023-08-17T01:59:39.767Z,100818.94
2023-08-17T02:01:03.042Z,100816.50
2023-08-17T02:02:25.045Z,100820.63
2023-08-17T02:03:47.960Z,100812.66
2023-08-17T02:05:10.393Z,100822.22
2023-08-17T02:06:33.351Z,100807.50
2023-08-17T02:07:55.276Z,100808.63
2023-08-17T02:09:19.467Z,100812.44
2023-08-17T02:10:41.438Z,100811.00
2023-08-17T02:12:04.658Z,100813.72
2023-08-17T02:13:28.461Z,100819.47
2023-08-17T02:14:50.447Z,100822.78
2023-08-17T02:16:13.695Z,100833.97
2023-08-17T02:17:35.674Z,100827.25
2023-08-17T02:18:58.599Z,100830.09
2023-08-17T02:20:20.642Z,100832.00
2023-08-17T02:21:43.662Z,100825.91
2023-08-17T02:23:05.769Z,100829.31
2023-08-17T02:24:30.025Z,100834.28
2023-08-17T02:25:52.024Z,100846.94
2023-08-17T02:27:14.965Z,100846.09
2023-08-17T02:28:36.953Z,100844.63
2023-08-17T02:29:59.931Z,100822.66
2023-08-17T02:31:22.023Z,100820.44
2023-08-17T02:32:45.183Z,100820.91
2023-08-17T02:34:07.215Z,100810.47
2023-08-17T02:35:30.227Z,100800.69
2023-08-17T02:36:52.252Z,100788.63
2023-08-17T02:38:15.176Z,100777.25
2023-08-17T02:39:38.769Z,100780.06
2023-08-17T02:41:01.774Z,100772.75
2023-08-17T02:42:23.820Z,100760.53
2023-08-17T02:43:46.746Z,100752.25
2023-08-17T02:45:10.128Z,100754.78
2023-08-17T02:46:33.169Z,100759.34
2023-08-17T02:47:55.212Z,100762.88
2023-08-17T02:49:18.230Z,100755.97
2023-08-17T02:50:40.667Z,100753.88
2023-08-17T02:52:03.622Z,100756.81
2023-08-17T02:53:25.593Z,100762.19
2023-08-17T02:54:49.844Z,100750.41
2023-08-17T02:56:13.018Z,100744.00
2023-08-17T02:57:35.984Z,100732.66
2023-08-17T02:58:58.288Z,100724.91
2023-08-17T03:00:21.221Z,100730.44
2023-08-17T03:01:45.698Z,100726.81
2023-08-17T03:03:08.748Z,100726.81
2023-08-17T03:04:31.112Z,100724.53
2023-08-17T03:05:54.342Z,100729.38
2023-08-17T03:07:16.378Z,100734.78
2023-08-17T03:08:39.356Z,100742.63
2023-08-17T03:10:02.625Z,100746.84
2023-08-17T03:11:25.506Z,100751.97
2023-08-17T03:12:47.445Z,100752.38
2023-08-17T03:14:10.328Z,100758.13
2023-08-17T03:15:32.309Z,100769.25
2023-08-17T03:16:55.262Z,100769.13
2023-08-17T03:18:17.227Z,100777.25
2023-08-17T03:19:40.133Z,100785.47
2023-08-17T03:21:02.219Z,100792.34
2023-08-17T03:22:25.455Z,100797.22
2023-08-17T03:23:47.444Z,100804.50
2023-08-17T03:25:12.018Z,100812.09
2023-08-17T03:26:34.061Z,100827.13
2023-08-17T03:27:56.927Z,100837.50
2023-08-17T03:29:18.865Z,100854.72
2023-08-17T03:30:41.800Z,100861.69
2023-08-17T03:32:03.969Z,100854.06
2023-08-17T03:33:26.926Z,100844.78
2023-08-17T03:34:51.994Z,100839.28
2023-08-17T03:36:16.409Z,100826.22
2023-08-17T03:37:38.549Z,100823.19
2023-08-17T03:39:01.457Z,100819.78
2023-08-17T03:40:24.836Z,100803.78
2023-08-17T03:41:47.786Z,100792.06
2023-08-17T03:43:09.753Z,100758.28
2023-08-17T03:44:32.693Z,100744.81
2023-08-17T03:45:55.351Z,100747.09
2023-08-17T03:47:18.286Z,100742.69
2023-08-17T03:48:40.409Z,100737.94
2023-08-17T03:50:04.569Z,100753.28
2023-08-17T03:51:26.555Z,100749.25
2023-08-17T03:52:49.559Z,100751.66
2023-08-17T03:54:13.044Z,100761.69
2023-08-17T03:55:37.749Z,100754.97
2023-08-17T03:57:01.724Z,100752.44
2023-08-17T03:58:32.079Z,100756.44
2023-08-17T03:59:56.425Z,100753.56
2023-08-17T04:01:22.440Z,100755.75
2023-08-17T04:02:46.871Z,100760.25
2023-08-17T04:04:14.295Z,100777.50
2023-08-17T04:05:39.449Z,100782.75
2023-08-17T04:07:02.484Z,100793.00
2023-08-17T04:08:24.533Z,100783.91
2023-08-17T04:09:48.168Z,100779.91
2023-08-17T04:11:11.464Z,100788.50
2023-08-17T04:12:35.232Z,100791.34
2023-08-17T04:13:57.602Z,100787.34
2023-08-17T04:15:20.533Z,100779.09
2023-08-17T04:16:42.926Z,100769.22
2023-08-17T04:18:06.386Z,100779.31
2023-08-17T04:19:28.543Z,100778.19
2023-08-17T04:20:55.027Z,100773.38
2023-08-17T04:22:17.605Z,100771.00
2023-08-17T04:23:40.522Z,100770.44
2023-08-17T04:25:02.808Z,100764.38
2023-08-17T04:26:27.164Z,100758.72
2023-08-17T04:27:49.204Z,100755.09
2023-08-17T04:29:15.398Z,100745.50
2023-08-17T04:30:40.669Z,100745.16
2023-08-17T04:32:03.845Z,100731.06
2023-08-17T04:33:25.793Z,100736.66
2023-08-17T04:34:49.341Z,100715.47
2023-08-17T04:36:11.354Z,100742.25
2023-08-17T04:37:34.637Z,100739.59
2023-08-17T04:38:56.636Z,100738.91
2023-08-17T04:40:23.287Z,100734.00
2023-08-17T04:41:46.571Z,100737.63
2023-08-17T04:43:12.385Z,100721.28
2023-08-17T04:44:34.391Z,100729.25
2023-08-17T04:46:03.181Z,100731.78
2023-08-17T04:47:25.800Z,100731.75
2023-08-17T04:48:51.304Z,100723.72
2023-08-17T04:50:17.267Z,100724.53
2023-08-17T04:51:42.258Z,100719.19
2023-08-17T04:53:06.744Z,100718.25
2023-08-17T04:54:32.556Z,100707.03
2023-08-17T04:55:54.792Z,100708.19
2023-08-17T04:57:24.246Z,100700.06
2023-08-17T04:58:46.746Z,100697.22
2023-08-17T05:00:29.418Z,100693.94
2023-08-17T05:01:53.563Z,100677.03
2023-08-17T05:04:56.146Z,100686.69
2023-08-17T05:06:23.558Z,100662.44
2023-08-17T05:07:52.788Z,100675.19
2023-08-17T05:09:27.841Z,100667.53
2023-08-17T05:10:50.290Z,100663.88
2023-08-17T05:12:16.310Z,100651.50
2023-08-17T05:13:39.762Z,100650.03
2023-08-17T05:15:02.884Z,100657.53
2023-08-17T05:16:24.893Z,100644.66
2023-08-17T05:17:58.274Z,100634.28
2023-08-17T05:19:20.381Z,100636.81
2023-08-17T05:20:43.302Z,100650.00
2023-08-17T05:22:05.694Z,100648.63
2023-08-17T05:23:28.734Z,100661.75
2023-08-17T05:24:53.429Z,100669.78
2023-08-17T05:26:18.605Z,100682.38
2023-08-17T05:27:41.561Z,100678.91
2023-08-17T05:29:05.982Z,100677.03
2023-08-17T05:30:28.453Z,100665.94
2023-08-17T05:31:51.439Z,100674.97
2023-08-17T05:33:13.513Z,100681.41
2023-08-17T05:34:36.871Z,100669.88
2023-08-17T05:35:59.121Z,100674.06
2023-08-17T05:37:22.325Z,100674.56
2023-08-17T05:38:44.622Z,100676.28
2023-08-17T05:40:09.988Z,100682.31
2023-08-17T05:41:32.164Z,100678.72
2023-08-17T05:42:55.151Z,100689.13
2023-08-17T05:44:18.662Z,100687.97
2023-08-17T05:45:41.666Z,100682.41
2023-08-17T05:47:04.083Z,100688.84
2023-08-17T05:48:27.567Z,100676.16
2023-08-17T05:49:49.629Z,100673.06
2023-08-17T05:51:12.586Z,100695.72
2023-08-17T05:52:34.690Z,100701.94
2023-08-17T05:53:57.872Z,100718.72
2023-08-17T05:55:19.859Z,100714.34
2023-08-17T05:56:45.947Z,100729.13
2023-08-17T05:58:07.977Z,100729.13
2023-08-17T05:59:32.331Z,100716.75
2023-08-17T06:00:54.279Z,100718.25
2023-08-17T06:02:17.368Z,100716.16
2023-08-17T06:03:39.565Z,100710.47
2023-08-17T06:05:02.613Z,100715.41
2023-08-17T06:06:24.629Z,100713.25
2023-08-17T06:07:47.617Z,100708.88
2023-08-17T06:09:09.744Z,100703.97
2023-08-17T06:10:32.676Z,100704.00
2023-08-17T06:11:54.588Z,100707.06
2023-08-17T06:13:17.542Z,100698.84
2023-08-17T06:14:41.330Z,100693.53
2023-08-17T06:16:04.240Z,100700.91
2023-08-17T06:17:26.490Z,100700.63
2023-08-17T06:18:49.625Z,100702.50
2023-08-17T06:20:13.334Z,100696.19
2023-08-17T06:21:36.333Z,100686.38
2023-08-17T06:22:59.438Z,100688.28
2023-08-17T06:24:24.062Z,100687.84
2023-08-17T06:25:46.048Z,100675.13
2023-08-17T06:27:09.002Z,100690.13
2023-08-17T06:28:30.985Z,100696.75
2023-08-17T06:29:55.306Z,100696.41
2023-08-17T06:31:17.583Z,100698.63
2023-08-17T06:32:40.694Z,100705.03
2023-08-17T06:34:02.667Z,100712.69
2023-08-17T06:35:25.650Z,100717.47
2023-08-17T06:36:58.691Z,100714.69
2023-08-17T06:38:21.614Z,100707.84
2023-08-17T06:39:43.551Z,100703.41
2023-08-17T06:41:06.451Z,100702.69
2023-08-17T06:42:28.412Z,100701.78
2023-08-17T06:43:51.335Z,100705.38
2023-08-17T06:45:19.367Z,100703.84
2023-08-17T06:46:42.287Z,100705.28
2023-08-17T06:48:04.933Z,100706.91
2023-08-17T06:49:28.869Z,100699.88
2023-08-17T06:50:50.777Z,100700.06
2023-08-17T06:52:13.717Z,100706.19
2023-08-17T06:53:35.684Z,100705.81
2023-08-17T06:54:58.628Z,100712.13
2023-08-17T06:56:21.815Z,100705.91
2023-08-17T06:57:43.803Z,100708.72
2023-08-17T06:59:06.700Z,100709.88
2023-08-17T07:00:31.079Z,100711.66
2023-08-17T07:01:53.473Z,100710.84
2023-08-17T07:03:17.332Z,100697.28
2023-08-17T07:04:39.332Z,100696.84
2023-08-17T07:06:02.280Z,100696.84
2023-08-17T07:07:24.424Z,100694.59
2023-08-17T07:08:47.802Z,100687.06
2023-08-17T07:10:11.465Z,100701.50
2023-08-17T07:11:34.744Z,100691.91
2023-08-17T07:12:56.702Z,100713.19
2023-08-17T07:14:21.793Z,100713.28
2023-08-17T07:15:46.316Z,100723.69
2023-08-17T07:17:09.246Z,100715.78
2023-08-17T07:18:32.295Z,100718.03
2023-08-17T07:20:14.654Z,100709.44
2023-08-17T07:21:37.397Z,100715.97
2023-08-17T07:22:59.434Z,100717.31
2023-08-17T07:24:22.330Z,100721.53
2023-08-17T07:25:45.311Z,100723.13
2023-08-17T07:27:08.344Z,100730.44
2023-08-17T07:28:30.492Z,100731.59
2023-08-17T07:29:54.415Z,100731.56
2023-08-17T07:31:17.765Z,100737.53
2023-08-17T07:32:40.999Z,100730.34
2023-08-17T07:34:03.174Z,100737.25
2023-08-17T07:35:26.213Z,100733.00
2023-08-17T07:36:48.163Z,100734.16
2023-08-17T07:38:11.127Z,100736.69
2023-08-17T07:39:33.549Z,100730.94
2023-08-17T07:40:56.975Z,100734.97
2023-08-17T07:42:18.968Z,100737.97
2023-08-17T07:43:41.908Z,100744.63
2023-08-17T07:45:07.325Z,100740.22
2023-08-17T07:46:31.732Z,100738.06
2023-08-17T07:47:54.005Z,100736.06
2023-08-17T07:49:30.285Z,100730.78
2023-08-17T07:50:54.775Z,100739.44
2023-08-17T07:52:18.306Z,100734.28
2023-08-17T07:53:40.461Z,100729.97
2023-08-17T07:55:04.545Z,100738.00
2023-08-17T07:56:26.613Z,100730.16
2023-08-17T07:57:49.791Z,100738.97
2023-08-17T07:59:12.147Z,100744.34
2023-08-17T08:00:35.038Z,100741.72
2023-08-17T08:01:58.454Z,100732.47
2023-08-17T08:03:21.481Z,100725.38
2023-08-17T08:04:43.476Z,100733.72
2023-08-17T08:06:06.505Z,100733.78
2023-08-17T08:07:28.635Z,100739.34
2023-08-17T08:08:52.026Z,100744.09
2023-08-17T08:10:14.467Z,100737.78
2023-08-17T08:11:37.719Z,100730.16
2023-08-17T08:12:59.893Z,100735.31
2023-08-17T08:14:23.210Z,100743.31
2023-08-17T08:15:45.273Z,100739.44
2023-08-17T08:17:09.730Z,100734.50
2023-08-17T08:18:31.994Z,100738.47
2023-08-17T08:19:55.584Z,100744.13
2023-08-17T08:21:17.693Z,100746.69
2023-08-17T08:22:40.637Z,100740.50
2023-08-17T08:24:02.934Z,100735.53
2023-08-17T08:25:26.313Z,100741.44
2023-08-17T08:26:48.273Z,100742.97
2023-08-17T08:28:11.516Z,100743.34
2023-08-17T08:29:34.228Z,100746.84
2023-08-17T08:30:57.148Z,100743.78
2023-08-17T08:32:24.315Z,100741.72
2023-08-17T08:33:47.264Z,100739.97
2023-08-17T08:35:09.455Z,100745.66
2023-08-17T08:36:32.412Z,100736.50
2023-08-17T08:37:56.623Z,100745.06
2023-08-17T08:39:19.629Z,100745.81
2023-08-17T08:40:41.998Z,100748.03
2023-08-17T08:42:06.024Z,100745.22
2023-08-17T08:43:28.245Z,100749.41
2023-08-17T08:44:52.281Z,100734.13
2023-08-17T08:46:18.061Z,100738.72
2023-08-17T08:47:46.825Z,100723.88
2023-08-17T08:49:11.681Z,100732.16
2023-08-17T08:50:38.250Z,100735.91
2023-08-17T08:52:02.061Z,100732.47
2023-08-17T08:53:36.269Z,100727.25
2023-08-17T08:54:59.759Z,100716.44
2023-08-17T08:56:25.768Z,100708.81
2023-08-17T08:57:51.798Z,100719.94
2023-08-17T08:59:15.699Z,100715.81
2023-08-17T09:00:39.679Z,100720.19
2023-08-17T09:02:02.990Z,100726.28
2023-08-17T09:03:27.933Z,100719.59
2023-08-17T09:04:51.448Z,100711.56
2023-08-17T09:06:15.689Z,100714.63
2023-08-17T09:07:38.766Z,100720.47
2023-08-17T09:09:03.961Z,100716.72
2023-08-17T09:10:26.038Z,100706.47
2023-08-17T09:13:27.633Z,100699.41
2023-08-17T09:14:49.877Z,100705.31
2023-08-17T09:16:13.068Z,100710.44
2023-08-17T09:17:35.461Z,100713.63
2023-08-17T09:19:00.267Z,100709.28
2023-08-17T09:20:38.111Z,100712.91
2023-08-17T09:22:01.230Z,100711.25
2023-08-17T09:23:23.455Z,100711.59
2023-08-17T09:24:46.583Z,100717.50
2023-08-17T09:26:12.878Z,100701.50
2023-08-17T09:27:35.277Z,100698.84
2023-08-17T09:29:00.175Z,100715.56
2023-08-17T09:30:22.212Z,100710.16
2023-08-17T09:31:49.474Z,100712.97
2023-08-17T09:33:11.489Z,100716.81
2023-08-17T09:34:36.226Z,100711.84
2023-08-17T09:36:00.547Z,100701.34
2023-08-17T09:37:27.802Z,100710.63
2023-08-17T09:38:52.951Z,100718.75
2023-08-17T09:40:22.234Z,100718.81
2023-08-17T09:41:45.412Z,100714.59
2023-08-17T09:43:08.927Z,100715.81
2023-08-17T09:44:35.169Z,100710.66
2023-08-17T09:45:58.391Z,100711.28
2023-08-17T09:47:22.452Z,100703.38
2023-08-17T09:48:46.452Z,100710.16
2023-08-17T09:50:11.405Z,100706.22
2023-08-17T09:51:34.529Z,100704.56
2023-08-17T09:53:00.703Z,100705.84
2023-08-17T09:54:27.064Z,100693.44
2023-08-17T09:55:49.340Z,100700.25
2023-08-17T09:57:23.378Z,100700.56
2023-08-17T09:59:04.271Z,100705.75
2023-08-17T10:00:28.262Z,100692.56
2023-08-17T10:03:20.379Z,100691.22
2023-08-17T10:04:47.282Z,100690.28
2023-08-17T10:06:13.379Z,100684.66
2023-08-17T10:07:49.794Z,100693.34
2023-08-17T10:09:18.854Z,100678.41
2023-08-17T10:10:45.164Z,100679.19
2023-08-17T10:12:13.971Z,100688.06
2023-08-17T10:13:41.939Z,100676.19
2023-08-17T10:15:09.329Z,100674.16
2023-08-17T10:16:44.057Z,100679.03
2023-08-17T10:18:15.679Z,100683.75
2023-08-17T10:19:46.014Z,100672.50
2023-08-17T10:21:14.940Z,100670.34
2023-08-17T10:22:46.898Z,100676.03
2023-08-17T10:24:51.562Z,100674.31
2023-08-17T10:26:54.940Z,100680.47
2023-08-17T10:28:19.656Z,100689.56
2023-08-17T10:29:43.361Z,100670.53
2023-08-17T10:31:11.555Z,100665.03
2023-08-17T10:32:34.058Z,100677.31
2023-08-17T10:33:58.313Z,100659.56
2023-08-17T10:35:20.849Z,100666.88
2023-08-17T10:36:46.628Z,100664.94
2023-08-17T10:38:11.323Z,100672.47
2023-08-17T10:39:35.861Z,100666.78
2023-08-17T10:41:17.721Z,100664.69
2023-08-17T10:42:41.326Z,100666.03
2023-08-17T10:44:03.573Z,100667.38
2023-08-17T10:45:32.107Z,100671.22
2023-08-17T10:46:54.598Z,100682.06
2023-08-17T10:48:29.108Z,100678.75
2023-08-17T10:49:52.372Z,100667.16
2023-08-17T10:51:15.532Z,100671.75
2023-08-17T10:54:11.790Z,100668.19
2023-08-17T10:55:37.625Z,100669.88
2023-08-17T10:57:00.997Z,100665.09
2023-08-17T10:58:22.931Z,100666.00
2023-08-17T10:59:46.043Z,100669.00
2023-08-17T11:01:08.391Z,100655.34
2023-08-17T11:02:40.041Z,100648.19
2023-08-17T11:04:17.008Z,100653.78
2023-08-17T11:05:44.006Z,100662.72
2023-08-17T11:07:17.209Z,100661.31
2023-08-17T11:08:53.070Z,100666.91
2023-08-17T11:10:34.071Z,100669.22
2023-08-17T11:12:12.290Z,100663.97
2023-08-17T11:14:13.115Z,100653.81
2023-08-17T11:16:13.749Z,100635.91
2023-08-17T11:17:54.670Z,100651.56
2023-08-17T11:19:33.208Z,100657.69
2023-08-17T11:21:10.061Z,100642.38
2023-08-17T11:23:00.034Z,100648.91
2023-08-17T11:24:30.712Z,100652.84
2023-08-17T11:25:53.632Z,100662.56
2023-08-17T11:27:28.681Z,100656.63
2023-08-17T11:29:01.714Z,100643.75
2023-08-17T11:32:37.765Z,100637.09
2023-08-17T11:34:06.986Z,100649.22
2023-08-17T11:35:29.102Z,100648.25
2023-08-17T11:36:52.722Z,100649.59
2023-08-17T11:39:59.879Z,100648.78
2023-08-17T11:41:33.526Z,100640.44
2023-08-17T11:43:12.711Z,100630.44
2023-08-17T11:44:43.380Z,100647.41
2023-08-17T11:46:11.948Z,100621.72
2023-08-17T11:48:01.208Z,100647.19
2023-08-17T11:49:44.224Z,100640.75
2023-08-17T11:51:19.789Z,100625.13
2023-08-17T11:53:00.700Z,100630.28
2023-08-17T11:54:34.056Z,100623.25
2023-08-17T11:56:15.117Z,100635.00
2023-08-17T11:57:53.101Z,100630.03
2023-08-17T11:59:31.939Z,100631.66
2023-08-17T12:01:20.072Z,100632.47
2023-08-17T12:03:01.763Z,100633.00
2023-08-17T12:04:40.617Z,100640.53
2023-08-17T12:06:18.648Z,100631.47
2023-08-17T12:08:06.233Z,100615.50
2023-08-17T12:11:51.284Z,100625.78
2023-08-17T12:13:53.531Z,100637.00
2023-08-17T12:15:17.295Z,100631.00
2023-08-17T12:18:46.983Z,100625.69
2023-08-17T12:20:15.373Z,100621.81
2023-08-17T12:21:59.503Z,100622.47
2023-08-17T12:23:28.171Z,100600.31
2023-08-17T12:25:18.548Z,100610.03
2023-08-17T12:27:17.288Z,100611.34
2023-08-17T12:28:55.756Z,100618.66
2023-08-17T12:30:47.349Z,100615.84
2023-08-17T12:38:43.810Z,100604.19
2023-08-17T12:40:49.221Z,100587.50
2023-08-17T12:42:20.819Z,100598.56
2023-08-17T12:43:48.720Z,100596.13
2023-08-17T12:47:10.242Z,100589.53
2023-08-17T12:48:49.850Z,100587.31
2023-08-17T12:50:13.892Z,100586.00
2023-08-17T12:52:00.631Z,100586.50
2023-08-17T12:53:41.939Z,100591.38
2023-08-17T12:55:15.996Z,100585.25
2023-08-17T12:56:58.917Z,100591.13
2023-08-17T13:02:55.257Z,100569.78
2023-08-17T13:06:22.133Z,100583.25
2023-08-17T13:08:00.156Z,100584.91
2023-08-17T13:13:17.544Z,100583.91
2023-08-17T13:15:04.768Z,100594.50
2023-08-17T13:18:16.985Z,100570.97
2023-08-17T13:19:50.982Z,100578.06
2023-08-17T13:21:26.000Z,100586.38
2023-08-17T13:23:11.690Z,100585.03
2023-08-17T13:24:43.882Z,100571.44
2023-08-17T13:26:16.546Z,100560.84
2023-08-17T13:27:46.786Z,100563.56
2023-08-17T13:29:18.361Z,100562.47
2023-08-17T13:33:07.949Z,100566.13
2023-08-17T13:36:45.253Z,100565.84
2023-08-17T13:38:27.420Z,100547.00
2023-08-17T13:40:12.412Z,100558.28
2023-08-17T13:41:46.242Z,100568.66
2023-08-17T13:43:24.038Z,100558.34
2023-08-17T13:45:33.547Z,100571.38
2023-08-17T13:48:49.587Z,100567.88
2023-08-17T13:50:28.539Z,100546.25
2023-08-17T13:52:01.236Z,100547.84
2023-08-17T13:53:33.994Z,100553.47
2023-08-17T13:55:10.378Z,100547.56
2023-08-17T13:56:36.258Z,100561.38
2023-08-17T13:57:59.389Z,100543.03
2023-08-17T13:59:26.519Z,100556.91
2023-08-17T14:00:50.283Z,100552.59
2023-08-17T14:02:30.917Z,100551.25
2023-08-17T14:03:54.224Z,100562.41
2023-08-17T14:05:20.040Z,100558.84
2023-08-17T14:06:46.206Z,100553.00
2023-08-17T14:08:12.368Z,100559.91
2023-08-17T14:09:43.288Z,100550.31
2023-08-17T14:11:13.151Z,100548.31
2023-08-17T14:12:40.178Z,100541.06
2023-08-17T14:14:10.057Z,100538.31
2023-08-17T14:15:43.929Z,100543.59
2023-08-17T14:17:09.186Z,100536.31
2023-08-17T14:18:42.445Z,100548.22
2023-08-17T14:20:14.025Z,100552.41
2023-08-17T14:21:38.808Z,100545.66
2023-08-17T14:23:10.951Z,100562.59
2023-08-17T14:24:38.792Z,100555.88
2023-08-17T14:26:30.714Z,100568.28
2023-08-17T14:28:04.240Z,100559.88
2023-08-17T14:29:28.244Z,100561.09
2023-08-17T14:30:57.982Z,100565.91
2023-08-17T14:32:26.073Z,100565.50
2023-08-17T14:34:09.396Z,100581.16
2023-08-17T14:35:34.717Z,100577.16
2023-08-17T14:37:03.449Z,100582.75
2023-08-17T14:38:31.574Z,100577.50
2023-08-17T14:40:19.804Z,100579.50
2023-08-17T14:41:57.145Z,100578.31
2023-08-17T14:43:37.587Z,100585.94
2023-08-17T14:45:10.780Z,100570.25
2023-08-17T14:46:47.900Z,100596.38
2023-08-17T14:48:26.841Z,100598.34
2023-08-17T14:50:00.322Z,100576.31
2023-08-17T14:51:31.471Z,100586.72
2023-08-17T14:53:03.799Z,100574.31
2023-08-17T14:54:30.841Z,100578.69
2023-08-17T14:55:56.262Z,100577.06
2023-08-17T14:57:26.590Z,100567.88
2023-08-17T14:58:51.500Z,100566.69
2023-08-17T15:00:20.109Z,100544.25
2023-08-17T15:01:42.343Z,100560.22
2023-08-17T15:03:06.304Z,100555.47
2023-08-17T15:04:28.578Z,100549.84
2023-08-17T15:05:53.921Z,100549.03
2023-08-17T15:07:17.595Z,100535.75
2023-08-17T15:08:51.963Z,100546.91
2023-08-17T15:10:16.702Z,100544.94
2023-08-17T15:11:45.399Z,100543.31
2023-08-17T15:13:11.276Z,100525.72
2023-08-17T15:14:35.075Z,100549.66
2023-08-17T15:15:57.792Z,100541.69
2023-08-17T15:17:20.858Z,100549.72
2023-08-17T15:18:43.039Z,100556.13
2023-08-17T15:20:07.361Z,100552.53
2023-08-17T15:21:30.741Z,100547.38
2023-08-17T15:22:54.093Z,100556.16
2023-08-17T15:24:16.146Z,100554.56
2023-08-17T15:25:44.889Z,100541.72
2023-08-17T15:27:09.206Z,100524.81
2023-08-17T15:28:33.214Z,100532.84
2023-08-17T15:29:57.721Z,100543.25
2023-08-17T15:31:21.454Z,100543.31
2023-08-17T15:32:53.377Z,100547.88
2023-08-17T15:34:21.370Z,100554.31
2023-08-17T15:35:43.454Z,100553.53
2023-08-17T15:37:08.546Z,100556.84
2023-08-17T15:38:30.921Z,100549.25
2023-08-17T15:39:54.414Z,100543.25
2023-08-17T15:41:16.523Z,100561.34
2023-08-17T15:42:39.621Z,100560.16
2023-08-17T15:44:01.873Z,100562.00
2023-08-17T15:45:25.231Z,100558.91
2023-08-17T15:46:47.515Z,100559.31
2023-08-17T15:48:10.800Z,100556.84
2023-08-17T15:49:32.976Z,100557.69
2023-08-17T15:50:57.174Z,100560.66
2023-08-17T15:52:22.328Z,100555.13
2023-08-17T15:53:47.603Z,100545.09
2023-08-17T15:55:09.984Z,100550.34
2023-08-17T15:56:33.372Z,100531.94
2023-08-17T15:57:55.720Z,100520.38
2023-08-17T15:59:21.815Z,100537.56
2023-08-17T16:00:47.709Z,100535.63
2023-08-17T16:02:11.106Z,100529.66
2023-08-17T16:03:33.491Z,100530.44
2023-08-17T16:04:56.596Z,100524.03
2023-08-17T16:06:19.543Z,100529.28
2023-08-17T16:07:48.641Z,100529.56
2023-08-17T16:09:18.381Z,100544.66
2023-08-17T16:10:50.639Z,100534.25
2023-08-17T16:12:16.228Z,100543.50
2023-08-17T16:13:45.766Z,100535.81
2023-08-17T16:15:12.825Z,100529.00
2023-08-17T16:16:34.912Z,100531.88
2023-08-17T16:19:26.619Z,100532.41
2023-08-17T16:20:50.101Z,100521.94
2023-08-17T16:22:17.164Z,100521.81
2023-08-17T16:23:43.772Z,100525.59
2023-08-17T16:25:07.339Z,100530.75
2023-08-17T16:26:34.448Z,100527.31
2023-08-17T16:27:57.111Z,100542.16
2023-08-17T16:29:20.262Z,100540.66
2023-08-17T16:30:42.369Z,100535.78
2023-08-17T16:32:09.457Z,100535.75
2023-08-17T16:33:31.852Z,100550.56
2023-08-17T16:34:54.885Z,100554.78
2023-08-17T16:36:18.549Z,100557.66
2023-08-17T16:37:41.192Z,100563.66
2023-08-17T16:39:17.215Z,100566.09
2023-08-17T16:40:39.373Z,100543.97
2023-08-17T16:42:02.601Z,100560.13
2023-08-17T16:43:24.683Z,100561.84
2023-08-17T16:44:47.897Z,100555.41
2023-08-17T16:47:00.744Z,100555.84
2023-08-17T16:49:46.376Z,100583.19
2023-08-17T16:51:09.427Z,100598.72
2023-08-17T16:52:31.424Z,100591.91
2023-08-17T16:53:54.967Z,100579.47
2023-08-17T16:55:18.719Z,100576.41
2023-08-17T16:56:53.873Z,100576.78
2023-08-17T16:58:29.479Z,100572.69
2023-08-17T16:59:54.670Z,100570.00
2023-08-17T17:01:16.770Z,100590.47
2023-08-17T17:02:39.805Z,100600.66
2023-08-17T17:04:02.149Z,100605.13
2023-08-17T17:05:25.401Z,100611.63
2023-08-17T17:06:47.476Z,100617.69
2023-08-17T17:08:10.512Z,100610.25
2023-08-17T17:09:32.578Z,100619.69